createdAt,value
2023-12-11T00:00:49.166Z,1.42
2023-12-11T00:03:21.767Z,0.88
2023-12-11T00:05:51.796Z,1.50
2023-12-11T00:08:21.622Z,1.30
2023-12-11T00:10:51.471Z,0.85
2023-12-11T00:13:21.264Z,1.08
2023-12-11T00:15:51.306Z,1.58
2023-12-11T00:18:23.902Z,1.60
2023-12-11T00:20:54.059Z,0.93
2023-12-11T00:23:23.842Z,0.88
2023-12-11T00:25:53.621Z,1.20
2023-12-11T00:28:23.396Z,1.10
2023-12-11T00:30:53.276Z,0.77
2023-12-11T00:33:25.833Z,0.93
2023-12-11T00:35:55.703Z,0.90
2023-12-11T00:38:25.489Z,0.80
2023-12-11T00:40:55.334Z,0.98
2023-12-11T00:43:25.080Z,0.70
2023-12-11T00:45:55.126Z,1.15
2023-12-11T00:48:27.686Z,0.57
2023-12-11T00:50:57.630Z,0.95
2023-12-11T00:53:27.426Z,1.02
2023-12-11T00:55:57.307Z,1.25
2023-12-11T00:58:27.100Z,1.13
2023-12-11T01:00:56.944Z,1.17
2023-12-11T01:03:29.576Z,0.80
2023-12-11T01:05:59.469Z,1.20
2023-12-11T01:08:31.516Z,0.60
2023-12-11T01:11:01.518Z,0.95
2023-12-11T01:13:31.629Z,1.05
2023-12-11T01:16:01.576Z,0.80
2023-12-11T01:18:34.232Z,1.20
2023-12-11T01:21:04.213Z,1.00
2023-12-11T01:23:33.963Z,0.80
2023-12-11T01:26:03.780Z,0.75
2023-12-11T01:28:33.568Z,0.80
2023-12-11T01:31:04.277Z,0.95
2023-12-11T01:33:36.816Z,0.60
2023-12-11T01:36:07.163Z,0.93
2023-12-11T01:38:36.966Z,0.77
2023-12-11T01:41:06.878Z,0.85
2023-12-11T01:43:36.711Z,1.13
2023-12-11T01:46:08.784Z,0.80
2023-12-11T01:51:12.491Z,1.02
2023-12-11T01:53:42.518Z,0.73
2023-12-11T01:56:13.155Z,0.60
2023-12-11T01:58:43.139Z,0.95
2023-12-11T02:01:13.904Z,0.50
2023-12-11T02:03:46.438Z,0.93
2023-12-11T02:06:16.559Z,0.70
2023-12-11T02:08:46.376Z,0.80
2023-12-11T02:11:16.183Z,0.75
2023-12-11T02:13:45.930Z,0.70
2023-12-11T02:16:18.256Z,0.90
2023-12-11T02:18:51.143Z,0.90
2023-12-11T02:21:21.065Z,0.73
2023-12-11T02:23:53.508Z,0.63
2023-12-11T02:26:25.993Z,0.95
2023-12-11T02:28:55.882Z,0.98
2023-12-11T02:31:25.777Z,0.50
2023-12-11T02:33:55.748Z,0.93
2023-12-11T02:36:25.616Z,0.82
2023-12-11T02:38:55.440Z,0.90
2023-12-11T02:41:27.812Z,1.17
2023-12-11T02:43:57.641Z,0.93
2023-12-11T02:46:27.318Z,0.70
2023-12-11T02:48:57.218Z,0.88
2023-12-11T02:51:27.099Z,0.70
2023-12-11T02:53:56.842Z,1.00
2023-12-11T02:56:29.250Z,0.98
2023-12-11T02:58:59.109Z,0.90
2023-12-11T03:01:28.951Z,0.82
2023-12-11T03:03:58.893Z,0.57
2023-12-11T03:06:28.669Z,0.68
2023-12-11T03:08:58.385Z,0.82
2023-12-11T03:11:30.748Z,0.90
2023-12-11T03:14:00.581Z,0.73
2023-12-11T03:16:30.325Z,0.80
2023-12-11T03:19:00.284Z,0.88
2023-12-11T03:21:31.251Z,0.90
2023-12-11T03:24:01.104Z,0.90
2023-12-11T03:26:33.557Z,0.90
2023-12-11T03:29:03.374Z,1.00
2023-12-11T03:31:33.118Z,0.95
2023-12-11T03:34:02.911Z,0.90
2023-12-11T03:36:32.768Z,0.70
2023-12-11T03:39:02.560Z,0.70
2023-12-11T03:41:34.865Z,0.85
2023-12-11T03:44:04.730Z,1.42
2023-12-11T03:46:34.439Z,1.08
2023-12-11T03:49:04.365Z,0.77
2023-12-11T03:51:34.306Z,0.77
2023-12-11T03:54:04.799Z,1.15
2023-12-11T03:56:37.185Z,0.93
2023-12-11T03:59:07.044Z,0.90
2023-12-11T04:01:36.883Z,1.30
2023-12-11T04:04:06.996Z,1.17
2023-12-11T04:06:36.835Z,1.08
2023-12-11T04:09:06.946Z,0.88
2023-12-11T04:11:39.275Z,1.10
2023-12-11T04:14:09.157Z,0.80
2023-12-11T04:16:39.004Z,0.55
2023-12-11T04:19:08.806Z,0.93
2023-12-11T04:21:38.762Z,0.65
2023-12-11T04:24:11.309Z,0.52
2023-12-11T04:26:45.285Z,1.20
2023-12-11T04:29:15.130Z,0.77
2023-12-11T04:31:44.862Z,0.93
2023-12-11T04:34:14.755Z,0.70
2023-12-11T04:36:45.611Z,0.85
2023-12-11T04:39:15.553Z,1.02
2023-12-11T04:41:48.013Z,1.05
2023-12-11T04:44:17.765Z,0.75
2023-12-11T04:46:47.501Z,0.85
2023-12-11T04:49:17.360Z,1.05
2023-12-11T04:51:47.193Z,1.23
2023-12-11T04:54:17.040Z,1.02
2023-12-11T04:56:49.390Z,1.33
2023-12-11T04:59:19.209Z,1.15
2023-12-11T05:01:49.155Z,1.10
2023-12-11T05:04:20.090Z,1.00
2023-12-11T05:06:49.848Z,1.10
2023-12-11T05:09:19.664Z,1.60
2023-12-11T05:11:51.984Z,1.10
2023-12-11T05:14:21.822Z,1.10
2023-12-11T05:16:51.561Z,0.80
2023-12-11T05:19:21.386Z,0.80
2023-12-11T05:21:52.798Z,0.73
2023-12-11T05:24:23.471Z,1.00
2023-12-11T05:26:56.000Z,1.33
2023-12-11T05:29:25.749Z,1.25
2023-12-11T05:31:55.434Z,0.70
2023-12-11T05:34:25.238Z,1.27
2023-12-11T05:36:55.412Z,1.15
2023-12-11T05:39:25.142Z,1.10
2023-12-11T05:41:57.398Z,0.93
2023-12-11T05:44:27.188Z,1.02
2023-12-11T05:46:56.859Z,1.13
2023-12-11T05:49:26.706Z,0.82
2023-12-11T05:51:57.867Z,1.30
2023-12-11T05:54:27.583Z,1.00
2023-12-11T05:57:00.094Z,1.17
2023-12-11T05:59:29.796Z,1.10
2023-12-11T06:01:59.515Z,1.08
2023-12-11T06:04:29.349Z,1.08
2023-12-11T06:06:59.120Z,0.95
2023-12-11T06:09:28.805Z,1.40
2023-12-11T06:12:01.034Z,1.15
2023-12-11T06:14:30.725Z,1.73
2023-12-11T06:17:01.199Z,1.70
2023-12-11T06:19:31.069Z,1.20
2023-12-11T06:22:00.874Z,1.25
2023-12-11T06:24:30.646Z,1.55
2023-12-11T06:27:03.058Z,1.23
2023-12-11T06:29:32.938Z,1.05
2023-12-11T06:32:02.699Z,1.40
2023-12-11T06:34:33.387Z,1.40
2023-12-11T06:37:03.467Z,1.80
2023-12-11T06:39:34.309Z,1.38
2023-12-11T06:42:06.967Z,0.82
2023-12-11T06:44:36.814Z,1.70
2023-12-11T06:47:06.570Z,1.25
2023-12-11T06:49:39.068Z,1.50
2023-12-11T06:52:09.789Z,0.98
2023-12-11T06:54:39.626Z,1.42
2023-12-11T06:57:12.803Z,1.40
2023-12-11T06:59:42.703Z,1.75
2023-12-11T07:02:12.697Z,1.45
2023-12-11T07:04:41.868Z,1.92
2023-12-11T07:07:11.901Z,2.35
2023-12-11T07:09:47.607Z,1.92
2023-12-11T07:12:20.637Z,1.88
2023-12-11T07:14:50.962Z,2.45
2023-12-11T07:17:20.685Z,1.90
2023-12-11T07:19:50.495Z,1.58
2023-12-11T07:22:20.356Z,1.52
2023-12-11T07:24:50.569Z,1.33
2023-12-11T07:27:22.972Z,1.58
2023-12-11T07:29:52.809Z,1.50
2023-12-11T07:32:22.567Z,1.45
2023-12-11T07:34:52.330Z,2.10
2023-12-11T07:37:22.568Z,2.50
2023-12-11T07:39:52.314Z,2.67
2023-12-11T07:42:24.708Z,1.27
2023-12-11T07:44:54.483Z,1.92
2023-12-11T07:47:24.676Z,2.53
2023-12-11T07:49:54.462Z,1.48
2023-12-11T07:52:24.225Z,1.88
2023-12-11T07:54:54.013Z,1.90
2023-12-11T07:57:27.881Z,1.80
2023-12-11T07:59:57.903Z,1.85
2023-12-11T08:02:27.662Z,1.83
2023-12-11T08:04:57.434Z,1.55
2023-12-11T08:07:27.294Z,1.77
2023-12-11T08:09:57.037Z,1.58
2023-12-11T08:12:29.436Z,1.40
2023-12-11T08:14:59.234Z,1.52
2023-12-11T08:17:29.166Z,1.20
2023-12-11T08:19:59.503Z,1.67
2023-12-11T08:22:29.309Z,1.20
2023-12-11T08:24:59.272Z,0.98
2023-12-11T08:27:31.691Z,1.15
2023-12-11T08:30:01.834Z,1.17
2023-12-11T08:32:31.803Z,1.52
2023-12-11T08:35:05.321Z,1.52
2023-12-11T08:37:35.383Z,2.33
2023-12-11T08:40:06.939Z,1.38
2023-12-11T08:42:41.544Z,1.70
2023-12-11T08:45:12.586Z,1.38
2023-12-11T08:47:44.512Z,0.93
2023-12-11T08:50:15.187Z,1.50
2023-12-11T08:52:45.894Z,1.10
2023-12-11T08:55:15.725Z,1.20
2023-12-11T08:57:48.763Z,1.38
2023-12-11T09:00:19.063Z,1.45
2023-12-11T09:02:48.984Z,1.35
2023-12-11T09:05:18.827Z,1.60
2023-12-11T09:07:48.632Z,1.27
2023-12-11T09:10:18.378Z,1.20
2023-12-11T09:12:50.733Z,1.48
2023-12-11T09:15:20.566Z,1.52
2023-12-11T09:17:50.878Z,1.17
2023-12-11T09:20:20.769Z,1.38
2023-12-11T09:22:50.500Z,0.82
2023-12-11T09:25:20.265Z,1.25
2023-12-11T09:27:52.681Z,1.23
2023-12-11T09:30:22.512Z,1.42
2023-12-11T09:32:52.687Z,1.88
2023-12-11T09:35:22.729Z,1.20
2023-12-11T09:37:53.803Z,1.25
2023-12-11T09:40:23.841Z,1.40
2023-12-11T09:42:56.373Z,1.20
2023-12-11T09:45:26.231Z,1.00
2023-12-11T09:48:07.725Z,0.93
2023-12-11T09:50:41.669Z,1.00
2023-12-11T09:53:12.523Z,1.38
2023-12-11T09:55:42.581Z,1.10
2023-12-11T09:58:15.073Z,0.98
2023-12-11T10:00:45.241Z,0.90
2023-12-11T10:03:15.083Z,1.23
2023-12-11T10:05:48.160Z,0.60
2023-12-11T10:08:19.235Z,0.68
2023-12-11T10:10:49.022Z,0.70
2023-12-11T10:13:27.979Z,1.23
2023-12-11T10:15:57.786Z,0.50
2023-12-11T10:18:27.659Z,0.88
2023-12-11T10:20:58.940Z,1.08
2023-12-11T10:23:29.191Z,0.55
2023-12-11T10:26:09.091Z,1.05
2023-12-11T10:28:41.563Z,0.80
2023-12-11T10:31:11.514Z,1.20
2023-12-11T10:33:51.139Z,1.15
2023-12-11T10:36:21.035Z,0.90
2023-12-11T10:38:50.728Z,0.70
2023-12-11T10:41:28.060Z,1.30
2023-12-11T10:44:12.051Z,1.00
2023-12-11T10:46:47.196Z,0.60
2023-12-11T10:49:17.110Z,1.13
2023-12-11T10:51:46.762Z,1.25
2023-12-11T10:54:16.415Z,0.80
2023-12-11T10:56:46.855Z,1.33
2023-12-11T10:59:19.237Z,1.23
2023-12-11T11:01:49.893Z,1.10
2023-12-11T11:04:20.688Z,1.38
2023-12-11T11:06:52.040Z,1.55
2023-12-11T11:09:25.635Z,1.25
2023-12-11T11:11:58.804Z,0.90
2023-12-11T11:14:41.044Z,0.90
2023-12-11T11:17:11.251Z,1.33
2023-12-11T11:19:41.275Z,1.17
2023-12-11T11:22:38.519Z,0.90
2023-12-11T11:25:25.718Z,1.55
2023-12-11T11:27:55.613Z,1.00
2023-12-11T11:30:40.171Z,0.88
2023-12-11T11:33:12.919Z,1.45
2023-12-11T11:35:55.703Z,1.35
2023-12-11T11:38:45.388Z,0.88
2023-12-11T11:41:24.352Z,0.73
2023-12-11T11:44:05.632Z,1.17
2023-12-11T11:46:50.383Z,1.50
2023-12-11T11:49:33.876Z,1.33
2023-12-11T11:52:07.241Z,1.25
2023-12-11T11:54:39.726Z,0.98
2023-12-11T11:57:11.667Z,1.40
2023-12-11T11:59:47.312Z,1.20
2023-12-11T12:02:24.146Z,1.30
2023-12-11T12:04:56.778Z,1.02
2023-12-11T12:07:27.227Z,1.60
2023-12-11T12:10:01.082Z,1.55
2023-12-11T12:12:31.398Z,1.13
2023-12-11T12:15:05.839Z,1.65
2023-12-11T12:17:36.400Z,1.48
2023-12-11T12:20:15.210Z,1.48
2023-12-11T12:22:57.601Z,1.17
2023-12-11T12:25:27.789Z,1.50
2023-12-11T12:27:59.182Z,1.25
2023-12-11T12:30:29.919Z,0.75
2023-12-11T12:33:00.256Z,1.67
2023-12-11T12:35:33.905Z,1.48
2023-12-11T12:38:04.493Z,1.15
2023-12-11T12:40:36.593Z,1.35
2023-12-11T12:43:13.146Z,1.27
2023-12-11T12:45:46.188Z,1.75
2023-12-11T12:48:16.354Z,1.42
2023-12-11T12:50:48.717Z,1.50
2023-12-11T12:53:20.351Z,1.10
2023-12-11T12:55:50.455Z,1.35
2023-12-11T12:58:27.976Z,1.40
2023-12-11T13:00:58.713Z,1.42
2023-12-11T13:03:28.554Z,1.02
2023-12-11T13:06:00.968Z,1.42
2023-12-11T13:08:31.650Z,1.60
2023-12-11T13:11:01.657Z,1.58
2023-12-11T13:13:31.674Z,1.65
2023-12-11T13:16:01.530Z,1.40
2023-12-11T13:18:37.501Z,1.73
2023-12-11T13:21:10.179Z,1.42
2023-12-11T13:23:40.533Z,1.80
2023-12-11T13:26:10.296Z,1.33
2023-12-11T13:28:40.316Z,1.33
2023-12-11T13:31:09.992Z,1.80
2023-12-11T13:33:39.756Z,1.33
2023-12-11T13:36:15.303Z,1.85
2023-12-11T13:38:45.036Z,1.73
2023-12-11T13:41:15.502Z,1.67
2023-12-11T13:43:45.134Z,1.25
2023-12-11T13:46:14.792Z,1.52
2023-12-11T13:48:44.899Z,1.25
2023-12-11T13:51:17.409Z,1.48
2023-12-11T13:53:47.196Z,1.50
2023-12-11T13:56:16.850Z,1.90
2023-12-11T13:58:46.477Z,1.35
2023-12-11T14:01:16.148Z,1.80
2023-12-11T14:03:45.916Z,1.48
2023-12-11T14:06:18.411Z,1.63
2023-12-11T14:08:48.524Z,1.48
2023-12-11T14:11:18.201Z,2.10
2023-12-11T14:13:47.995Z,1.60
2023-12-11T14:16:17.695Z,1.63
2023-12-11T14:18:47.601Z,1.20
2023-12-11T14:21:19.936Z,1.63
2023-12-11T14:23:52.506Z,1.40
2023-12-11T14:26:22.733Z,1.75
2023-12-11T14:28:52.614Z,1.73
2023-12-11T14:31:22.272Z,1.30
2023-12-11T14:33:52.824Z,1.52
2023-12-11T14:36:27.530Z,0.90
2023-12-11T14:38:57.650Z,1.67
2023-12-11T14:41:27.278Z,1.25
2023-12-11T14:43:57.064Z,1.58
2023-12-11T14:46:27.854Z,1.52
2023-12-11T14:48:57.850Z,1.52
2023-12-11T14:51:30.167Z,1.13
2023-12-11T14:54:00.135Z,1.20
2023-12-11T14:56:29.797Z,2.17
2023-12-11T14:58:59.454Z,1.65
2023-12-11T15:01:29.122Z,1.33
2023-12-11T15:03:58.886Z,1.75
2023-12-11T15:06:31.178Z,1.42
2023-12-11T15:09:01.399Z,2.40
2023-12-11T15:11:34.653Z,3.85
2023-12-11T15:14:06.006Z,2.15
2023-12-11T15:16:40.779Z,1.92
2023-12-11T15:19:10.821Z,1.70
2023-12-11T15:21:43.309Z,2.10
2023-12-11T15:24:13.119Z,2.42
2023-12-11T15:26:42.735Z,2.05
2023-12-11T15:29:12.362Z,2.70
2023-12-11T15:31:43.612Z,2.38
2023-12-11T15:34:13.536Z,1.73
2023-12-11T15:36:45.909Z,2.10
2023-12-11T15:39:15.588Z,1.63
2023-12-11T15:41:45.260Z,2.00
2023-12-11T15:44:14.988Z,2.88
2023-12-11T15:46:44.847Z,2.85
2023-12-11T15:49:12.436Z,3.50
2023-12-11T15:51:42.510Z,1.45
2023-12-11T15:54:14.890Z,1.67
2023-12-11T15:56:44.579Z,1.92
2023-12-11T15:59:14.164Z,1.55
2023-12-11T16:01:43.836Z,2.20
2023-12-11T16:04:13.569Z,2.05
2023-12-11T16:06:43.462Z,2.25
2023-12-11T16:09:19.121Z,1.83
2023-12-11T16:11:49.389Z,2.20
2023-12-11T16:14:19.017Z,2.47
2023-12-11T16:16:48.615Z,1.65
2023-12-11T16:19:18.350Z,2.10
2023-12-11T16:21:48.501Z,1.85
2023-12-11T16:24:21.037Z,1.67
2023-12-11T16:26:50.765Z,2.28
2023-12-11T16:29:22.313Z,2.20
2023-12-11T16:31:56.460Z,3.13
2023-12-11T16:34:28.081Z,2.28
2023-12-11T16:36:57.911Z,2.08
2023-12-11T16:39:30.097Z,2.78
2023-12-11T16:41:59.790Z,1.60
2023-12-11T16:44:29.407Z,2.08
2023-12-11T16:46:59.060Z,2.00
2023-12-11T16:49:28.830Z,1.65
2023-12-11T16:51:58.577Z,1.48
2023-12-11T16:54:31.154Z,1.88
2023-12-11T16:57:00.886Z,2.40
2023-12-11T16:59:30.503Z,2.00
2023-12-11T17:02:00.304Z,2.25
2023-12-11T17:04:30.335Z,2.60
2023-12-11T17:07:00.567Z,3.17
2023-12-11T17:09:32.852Z,12.63
2023-12-11T17:12:02.582Z,5.60
2023-12-11T17:14:32.210Z,2.13
2023-12-11T17:17:01.877Z,2.30
2023-12-11T17:19:31.931Z,3.42
2023-12-11T17:22:01.708Z,2.72
2023-12-11T17:24:39.516Z,2.30
2023-12-11T17:27:09.760Z,2.13
2023-12-11T17:29:39.724Z,2.35
2023-12-11T17:32:09.941Z,1.65
2023-12-11T17:34:40.756Z,2.10
2023-12-11T17:37:10.692Z,2.20
2023-12-11T17:39:43.133Z,1.95
2023-12-11T17:42:12.925Z,2.13
2023-12-11T17:44:42.624Z,2.28
2023-12-11T17:47:12.415Z,1.48
2023-12-11T17:49:44.305Z,1.70
2023-12-11T17:52:14.134Z,1.77
2023-12-11T17:54:50.512Z,2.47
2023-12-11T17:57:20.304Z,1.95
2023-12-11T17:59:50.690Z,2.00
2023-12-11T18:02:20.397Z,1.60
2023-12-11T18:04:50.182Z,1.80
2023-12-11T18:07:21.593Z,1.48
2023-12-11T18:09:54.152Z,1.98
2023-12-11T18:12:23.985Z,1.73
2023-12-11T18:14:53.815Z,2.00
2023-12-11T18:17:23.500Z,1.95
2023-12-11T18:19:53.329Z,1.50
2023-12-11T18:22:23.017Z,1.95
2023-12-11T18:24:55.576Z,2.10
2023-12-11T18:27:25.341Z,2.15
2023-12-11T18:29:55.057Z,1.95
2023-12-11T18:32:24.825Z,1.33
2023-12-11T18:34:55.582Z,1.50
2023-12-11T18:37:26.279Z,1.95
2023-12-11T18:39:58.749Z,1.42
2023-12-11T18:42:28.510Z,1.60
2023-12-11T18:44:58.202Z,1.52
2023-12-11T18:47:27.993Z,1.80
2023-12-11T18:49:57.842Z,1.42
2023-12-11T18:52:27.541Z,1.67
2023-12-11T18:55:00.017Z,1.50
2023-12-11T18:57:30.170Z,2.42
2023-12-11T18:59:59.939Z,1.73
2023-12-11T19:02:29.719Z,1.85
2023-12-11T19:04:59.463Z,2.20
2023-12-11T19:07:29.620Z,1.45
2023-12-11T19:10:02.718Z,1.45
2023-12-11T19:12:32.587Z,1.75
2023-12-11T19:15:02.271Z,1.48
2023-12-11T19:17:32.296Z,1.25
2023-12-11T19:20:02.251Z,1.75
2023-12-11T19:22:31.968Z,2.05
2023-12-11T19:25:04.301Z,1.92
2023-12-11T19:27:34.163Z,2.55
2023-12-11T19:30:03.849Z,1.60
2023-12-11T19:32:33.608Z,2.00
2023-12-11T19:35:03.422Z,2.28
2023-12-11T19:37:33.400Z,1.48
2023-12-11T19:40:07.927Z,1.98
2023-12-11T19:42:38.067Z,1.90
2023-12-11T19:45:08.237Z,2.03
2023-12-11T19:47:38.101Z,2.35
2023-12-11T19:50:08.559Z,1.83
2023-12-11T19:52:38.776Z,2.97
2023-12-11T19:55:11.812Z,3.40
2023-12-11T19:57:41.955Z,3.65
2023-12-11T20:00:12.350Z,3.30
2023-12-11T20:02:42.756Z,3.35
2023-12-11T20:05:12.621Z,4.13
2023-12-11T20:07:42.448Z,2.90
2023-12-11T20:10:15.380Z,2.17
2023-12-11T20:12:45.393Z,3.17
2023-12-11T20:15:15.117Z,3.33
2023-12-11T20:17:44.817Z,1.95
2023-12-11T20:20:15.098Z,2.55
2023-12-11T20:22:45.518Z,2.22
2023-12-11T20:25:17.923Z,2.28
2023-12-11T20:27:47.710Z,2.35
2023-12-11T20:30:17.665Z,2.97
2023-12-11T20:32:47.506Z,2.53
2023-12-11T20:35:17.289Z,2.30
2023-12-11T20:37:46.987Z,2.35
2023-12-11T20:40:19.485Z,2.10
2023-12-11T20:42:49.255Z,1.92
2023-12-11T20:45:20.120Z,2.28
2023-12-11T20:47:50.638Z,2.17
2023-12-11T20:50:20.323Z,2.40
2023-12-11T20:52:49.948Z,1.77
2023-12-11T20:55:22.321Z,2.33
2023-12-11T20:57:54.862Z,2.90
2023-12-11T21:00:25.183Z,2.75
2023-12-11T21:02:54.809Z,1.52
2023-12-11T21:05:24.515Z,1.95
2023-12-11T21:07:54.772Z,2.90
2023-12-11T21:10:29.257Z,2.40
2023-12-11T21:12:59.441Z,2.35
2023-12-11T21:15:29.168Z,2.55
2023-12-11T21:17:59.061Z,2.40
2023-12-11T21:20:28.852Z,2.58
2023-12-11T21:22:58.534Z,2.67
2023-12-11T21:25:31.058Z,4.55
2023-12-11T21:28:00.939Z,2.42
2023-12-11T21:30:30.711Z,2.80
2023-12-11T21:32:58.269Z,3.40
2023-12-11T21:35:28.058Z,2.53
2023-12-11T21:37:57.940Z,3.03
2023-12-11T21:40:30.402Z,3.15
2023-12-11T21:43:00.722Z,2.95
2023-12-11T21:45:30.523Z,2.17
2023-12-11T21:48:00.363Z,2.60
2023-12-11T21:50:30.158Z,1.90
2023-12-11T21:52:59.857Z,2.00
2023-12-11T21:55:32.462Z,2.17
2023-12-11T21:58:02.326Z,2.33
2023-12-11T22:00:32.014Z,2.15
2023-12-11T22:03:01.872Z,2.70
2023-12-11T22:05:31.589Z,2.42
2023-12-11T22:08:01.382Z,2.30
2023-12-11T22:10:33.808Z,1.98
2023-12-11T22:13:03.651Z,2.30
2023-12-11T22:15:33.406Z,2.17
2023-12-11T22:18:04.981Z,1.75
2023-12-11T22:20:36.567Z,2.30
2023-12-11T22:23:06.327Z,2.40
2023-12-11T22:25:38.641Z,3.15
2023-12-11T22:28:09.492Z,2.58
2023-12-11T22:30:39.346Z,2.30
2023-12-11T22:33:09.846Z,2.25
2023-12-11T22:35:39.626Z,2.00
2023-12-11T22:38:10.481Z,2.47
2023-12-11T22:40:45.028Z,2.78
2023-12-11T22:43:14.891Z,1.80
2023-12-11T22:45:44.676Z,2.10
2023-12-11T22:48:15.200Z,2.13
2023-12-11T22:50:44.914Z,2.50
2023-12-11T22:53:14.576Z,2.22
2023-12-11T22:55:46.887Z,2.05
2023-12-11T22:58:17.291Z,2.17
2023-12-11T23:00:47.312Z,2.58
2023-12-11T23:03:17.043Z,1.95
2023-12-11T23:05:46.775Z,2.00
2023-12-11T23:08:16.507Z,1.95
2023-12-11T23:10:48.792Z,1.90
2023-12-11T23:13:18.576Z,2.60
2023-12-11T23:15:48.241Z,1.92
2023-12-11T23:18:18.011Z,2.47
2023-12-11T23:20:47.773Z,1.92
2023-12-11T23:23:17.479Z,2.78
2023-12-11T23:25:54.810Z,2.25
2023-12-11T23:28:30.765Z,2.30
2023-12-11T23:31:00.570Z,2.03
2023-12-11T23:33:30.403Z,2.65
2023-12-11T23:36:00.269Z,2.42
2023-12-11T23:38:30.135Z,2.45
2023-12-11T23:41:02.761Z,2.60
2023-12-11T23:43:32.638Z,2.03
2023-12-11T23:46:02.512Z,2.47
2023-12-11T23:48:32.423Z,2.55
2023-12-11T23:51:02.375Z,1.60
2023-12-11T23:53:32.161Z,2.58
2023-12-11T23:56:04.478Z,2.42
2023-12-11T23:58:34.318Z,2.40
